Time;durP1;ratioP1;P1;durP2;ratioP2;P2;SDS_P1;SDS_P2;PMS_P1;PMS_P2;Temp;Humidity;BMP_temperature;BMP_pressure;BME280_temperature;BME280_humidity;BME280_pressure;Samples;Min_cycle;Max_cycle;Signal;HPM_P1;HPM_P2
2023/06/21 00:01:38;;;;;;;7.63;4.40;;;9.80;63.40;;;;;;4987941;28;20207;-70
2023/06/21 00:04:06;;;;;;;14.20;4.67;;;10.00;63.60;;;;;;4990522;28;20262;-71
2023/06/21 00:06:36;;;;;;;8.27;4.73;;;10.20;62.10;;;;;;4988155;28;20193;-72
2023/06/21 00:09:04;;;;;;;8.67;4.80;;;10.20;62.00;;;;;;4985301;28;20202;-71
2023/06/21 00:11:32;;;;;;;7.63;4.57;;;10.30;61.50;;;;;;4981358;28;20188;-70
2023/06/21 00:14:00;;;;;;;12.47;4.60;;;10.30;61.50;;;;;;4996172;28;20210;-70
2023/06/21 00:16:27;;;;;;;10.57;4.93;;;10.40;61.20;;;;;;4991402;28;20224;-70
2023/06/21 00:18:54;;;;;;;12.30;4.80;;;10.50;60.80;;;;;;4990136;28;20721;-70
2023/06/21 00:21:22;;;;;;;7.07;4.50;;;10.70;61.00;;;;;;4989493;28;20931;-70
2023/06/21 00:23:49;;;;;;;10.13;4.73;;;10.80;60.40;;;;;;4986148;28;20713;-70
2023/06/21 00:26:16;;;;;;;10.87;4.93;;;10.90;60.60;;;;;;4988458;28;20198;-71
2023/06/21 00:28:44;;;;;;;8.80;4.60;;;11.00;60.10;;;;;;4985421;28;20185;-71
2023/06/21 00:31:11;;;;;;;7.33;5.10;;;11.00;59.40;;;;;;4987174;28;20200;-71
2023/06/21 00:33:38;;;;;;;7.20;4.57;;;10.90;59.40;;;;;;4983884;28;20225;-70
2023/06/21 00:36:06;;;;;;;7.47;4.57;;;11.00;59.60;;;;;;4992467;28;20192;-71
2023/06/21 00:38:35;;;;;;;8.67;4.30;;;11.20;59.20;;;;;;4987721;28;20174;-70
2023/06/21 00:41:05;;;;;;;7.03;4.27;;;11.40;59.60;;;;;;4984326;28;20335;-76
2023/06/21 00:43:33;;;;;;;10.03;4.60;;;11.60;58.60;;;;;;4987001;28;20182;-75
2023/06/21 00:46:00;;;;;;;10.80;4.03;;;11.70;58.20;;;;;;4983393;28;20201;-76
2023/06/21 00:48:28;;;;;;;6.83;3.80;;;11.80;57.60;;;;;;4980628;28;20190;-74
2023/06/21 00:50:57;;;;;;;9.60;4.00;;;11.90;57.60;;;;;;4988829;28;20227;-70
2023/06/21 00:53:27;;;;;;;15.03;4.50;;;12.20;56.90;;;;;;4986410;28;20189;-71
2023/06/21 00:55:58;;;;;;;9.73;4.27;;;12.20;56.70;;;;;;4990821;28;20262;-70
2023/06/21 00:58:26;;;;;;;9.47;4.60;;;12.20;56.60;;;;;;4990963;28;20185;-74
2023/06/21 01:00:53;;;;;;;10.87;3.90;;;12.30;56.00;;;;;;4993665;28;20245;-70
2023/06/21 01:03:21;;;;;;;6.63;3.70;;;12.50;55.70;;;;;;4987270;28;20233;-70
2023/06/21 01:06:20;;;;;;;11.93;4.30;;;12.70;55.20;;;;;;4987940;28;20268;-70
2023/06/21 01:09:14;;;;;;;12.50;3.77;;;12.80;55.00;;;;;;4989676;28;20205;-71
2023/06/21 01:12:00;;;;;;;11.67;4.47;;;12.80;54.40;;;;;;4983622;28;20190;-71
2023/06/21 01:14:42;;;;;;;8.87;3.77;;;12.90;54.10;;;;;;4988342;28;20268;-71
2023/06/21 01:17:11;;;;;;;7.30;3.20;;;13.10;54.00;;;;;;4990302;28;20240;-70
2023/06/21 01:19:51;;;;;;;7.37;3.40;;;13.30;53.80;;;;;;4988240;28;20233;-70
2023/06/21 01:22:44;;;;;;;5.83;3.60;;;13.40;53.00;;;;;;4985764;28;20178;-74
2023/06/21 01:25:17;;;;;;;6.43;3.23;;;13.60;52.40;;;;;;4986187;28;20193;-71
2023/06/21 01:28:12;;;;;;;7.90;3.17;;;13.80;52.40;;;;;;4989684;28;20303;-70
2023/06/21 01:30:41;;;;;;;8.30;3.10;;;13.90;52.40;;;;;;4986724;28;20185;-72
2023/06/21 01:33:09;;;;;;;14.73;3.33;;;14.00;51.40;;;;;;4986725;28;20190;-71
2023/06/21 01:35:36;;;;;;;5.90;3.20;;;14.20;51.50;;;;;;4979465;28;20722;-70
2023/06/21 01:38:04;;;;;;;9.40;3.37;;;14.30;50.90;;;;;;4985003;28;20234;-72
2023/06/21 01:40:31;;;;;;;5.43;2.97;;;14.30;50.80;;;;;;4971096;28;20561;-72
2023/06/21 01:42:59;;;;;;;5.90;3.27;;;14.60;50.40;;;;;;4987171;28;20194;-73
2023/06/21 01:45:26;;;;;;;6.30;2.63;;;14.70;50.10;;;;;;4994302;28;20216;-75
2023/06/21 01:47:54;;;;;;;7.27;2.67;;;14.80;49.70;;;;;;4990527;28;20177;-71
2023/06/21 01:50:22;;;;;;;8.93;2.97;;;14.90;49.40;;;;;;4990105;28;20218;-73
2023/06/21 01:52:52;;;;;;;6.93;2.70;;;15.00;48.60;;;;;;4988513;28;20186;-74
2023/06/21 01:55:20;;;;;;;8.50;2.93;;;15.00;49.20;;;;;;4990351;28;20255;-72
2023/06/21 01:57:47;;;;;;;6.67;2.93;;;15.30;48.20;;;;;;4989642;28;20190;-76
2023/06/21 02:00:18;;;;;;;6.93;2.80;;;15.20;48.10;;;;;;4975299;28;20212;-71
2023/06/21 02:02:59;;;;;;;6.77;2.50;;;15.50;48.00;;;;;;4991097;28;20212;-71
2023/06/21 02:05:28;;;;;;;4.87;2.07;;;15.60;47.00;;;;;;4989876;28;20214;-73
2023/06/21 02:07:56;;;;;;;5.80;2.30;;;15.50;47.10;;;;;;4989144;28;20201;-71
2023/06/21 02:10:25;;;;;;;4.10;2.17;;;15.60;47.20;;;;;;4986584;28;20192;-75
2023/06/21 02:12:53;;;;;;;2.77;1.90;;;15.60;46.50;;;;;;4992188;28;20659;-75
2023/06/21 02:15:21;;;;;;;3.97;2.07;;;15.70;46.30;;;;;;4990470;28;20225;-71
2023/06/21 02:17:49;;;;;;;6.07;2.13;;;15.80;45.40;;;;;;4993496;28;20196;-71
2023/06/21 02:20:19;;;;;;;8.67;1.70;;;16.00;45.80;;;;;;4990103;28;20592;-72
2023/06/21 02:22:47;;;;;;;4.03;1.50;;;16.40;44.90;;;;;;4993644;28;20656;-72
2023/06/21 02:25:15;;;;;;;1.53;1.00;;;16.50;42.40;;;;;;4987364;28;20178;-74
2023/06/21 02:27:43;;;;;;;1.77;1.20;;;16.40;42.10;;;;;;4991776;28;20192;-73
2023/06/21 02:30:11;;;;;;;5.83;1.60;;;16.50;41.60;;;;;;4985354;28;20276;-74
2023/06/21 02:32:38;;;;;;;4.33;1.20;;;16.60;42.00;;;;;;4989548;28;20190;-72
2023/06/21 02:35:07;;;;;;;2.50;0.93;;;16.40;40.70;;;;;;4984559;28;20313;-71
2023/06/21 02:37:34;;;;;;;2.57;1.10;;;16.30;42.10;;;;;;4985968;28;20197;-72
2023/06/21 02:40:10;;;;;;;3.60;1.27;;;16.50;41.80;;;;;;4982078;28;20561;-72
2023/06/21 02:42:38;;;;;;;1.93;1.00;;;16.60;41.70;;;;;;4991214;28;20608;-74
2023/06/21 02:45:06;;;;;;;5.30;1.20;;;16.60;41.50;;;;;;4990326;28;20244;-71
2023/06/21 02:47:34;;;;;;;5.47;1.50;;;16.50;41.30;;;;;;4988351;28;20178;-74
2023/06/21 02:50:02;;;;;;;3.47;1.60;;;16.40;41.40;;;;;;4985896;28;20194;-71
2023/06/21 02:52:30;;;;;;;2.10;1.23;;;16.50;41.60;;;;;;4986687;28;20186;-70
2023/06/21 02:54:58;;;;;;;2.47;1.10;;;16.30;41.40;;;;;;4987378;28;20275;-69
2023/06/21 02:57:26;;;;;;;2.60;0.97;;;16.20;41.40;;;;;;4988923;28;20186;-70
2023/06/21 02:59:53;;;;;;;3.33;1.30;;;16.30;41.90;;;;;;4981880;28;20211;-71
2023/06/21 03:02:21;;;;;;;6.70;1.77;;;16.20;42.10;;;;;;4984823;28;20215;-69
2023/06/21 03:04:49;;;;;;;6.70;1.27;;;16.30;42.60;;;;;;4983889;28;20194;-71
2023/06/21 03:07:17;;;;;;;6.73;1.13;;;16.50;41.80;;;;;;4987655;28;20268;-71
2023/06/21 03:09:44;;;;;;;1.30;1.20;;;16.40;40.50;;;;;;4974331;28;20199;-73
2023/06/21 03:12:11;;;;;;;6.33;1.20;;;16.40;41.20;;;;;;4981267;28;20202;-71
2023/06/21 03:14:39;;;;;;;3.07;1.13;;;16.40;41.00;;;;;;4987747;28;20227;-71
2023/06/21 03:17:06;;;;;;;5.43;1.00;;;16.60;40.20;;;;;;4985311;28;20637;-71
2023/06/21 03:19:34;;;;;;;5.93;1.10;;;16.60;39.80;;;;;;4986185;28;20273;-69
2023/06/21 03:22:02;;;;;;;4.50;1.27;;;16.50;39.90;;;;;;4993399;28;20188;-70
2023/06/21 03:24:32;;;;;;;4.07;1.40;;;16.50;39.90;;;;;;4987254;28;20201;-70
2023/06/21 03:27:00;;;;;;;4.87;1.40;;;16.70;39.90;;;;;;4981565;28;20194;-70
2023/06/21 03:29:27;;;;;;;14.13;1.60;;;16.80;40.20;;;;;;4983376;28;20186;-71
2023/06/21 03:31:54;;;;;;;2.20;1.30;;;17.10;40.10;;;;;;4988255;28;20681;-70
2023/06/21 03:34:22;;;;;;;2.73;1.17;;;17.30;39.10;;;;;;4981703;28;20608;-70
2023/06/21 03:36:53;;;;;;;6.40;1.67;;;17.50;38.40;;;;;;4980289;28;20276;-70
2023/06/21 03:39:20;;;;;;;1.57;0.90;;;17.80;38.60;;;;;;4986481;28;20213;-70
2023/06/21 03:41:47;;;;;;;3.37;1.10;;;18.20;36.60;;;;;;4981803;28;20675;-72
2023/06/21 03:44:15;;;;;;;2.13;1.07;;;18.30;35.50;;;;;;4985906;28;20178;-70
2023/06/21 03:46:45;;;;;;;2.57;1.30;;;18.20;35.80;;;;;;4988716;28;20197;-71
2023/06/21 03:49:12;;;;;;;2.17;0.80;;;18.40;35.40;;;;;;4986552;28;20530;-71
2023/06/21 03:51:40;;;;;;;1.77;1.10;;;18.90;35.20;;;;;;4986385;28;20845;-71
2023/06/21 03:54:07;;;;;;;3.47;0.80;;;19.00;35.30;;;;;;4985102;28;20595;-72
2023/06/21 03:56:34;;;;;;;2.50;1.13;;;19.00;35.10;;;;;;4989052;28;20186;-72
2023/06/21 03:59:01;;;;;;;2.47;1.10;;;19.10;34.70;;;;;;4983283;28;20656;-72
2023/06/21 04:01:29;;;;;;;4.60;1.30;;;18.90;34.30;;;;;;4985704;28;20308;-72
2023/06/21 04:03:56;;;;;;;1.30;0.87;;;18.90;34.30;;;;;;4983542;28;20190;-72
2023/06/21 04:06:25;;;;;;;4.10;1.10;;;19.30;33.30;;;;;;4981861;28;20201;-73
2023/06/21 04:08:53;;;;;;;1.73;1.00;;;19.50;33.40;;;;;;4984291;28;20189;-71
2023/06/21 04:11:20;;;;;;;2.67;1.00;;;19.50;33.80;;;;;;4990405;28;20186;-70
2023/06/21 04:13:47;;;;;;;2.03;0.90;;;20.00;32.70;;;;;;4987042;28;20236;-71
2023/06/21 04:16:15;;;;;;;6.73;1.53;;;19.70;33.40;;;;;;4987633;28;20684;-72
2023/06/21 04:18:42;;;;;;;3.27;0.90;;;19.90;33.50;;;;;;4982347;28;20238;-73
2023/06/21 04:21:10;;;;;;;1.53;1.00;;;19.40;33.90;;;;;;4988170;28;20223;-75
2023/06/21 04:23:37;;;;;;;5.40;1.10;;;20.00;33.80;;;;;;4981508;28;20203;-71
2023/06/21 04:26:06;;;;;;;5.07;1.07;;;20.30;32.20;;;;;;4985351;28;20558;-70
2023/06/21 04:28:40;;;;;;;4.43;1.10;;;19.90;33.50;;;;;;4989796;28;20194;-71
2023/06/21 04:31:07;;;;;;;5.90;1.00;;;20.10;33.10;;;;;;4986947;28;20197;-72
2023/06/21 04:33:35;;;;;;;4.43;1.10;;;20.20;33.20;;;;;;4988115;28;20200;-75
2023/06/21 04:36:02;;;;;;;2.63;1.00;;;20.30;33.30;;;;;;4985184;28;20263;-71
2023/06/21 04:38:31;;;;;;;2.73;0.90;;;20.00;33.10;;;;;;4985559;28;20206;-76
2023/06/21 04:40:59;;;;;;;3.00;1.00;;;19.90;32.90;;;;;;4988344;28;20194;-71
2023/06/21 04:43:26;;;;;;;2.67;0.97;;;20.90;32.00;;;;;;4989146;28;20182;-72
2023/06/21 04:45:53;;;;;;;2.70;1.13;;;20.80;31.40;;;;;;4988624;28;20177;-71
2023/06/21 04:48:24;;;;;;;2.53;0.80;;;20.70;32.10;;;;;;4988596;28;20184;-71
2023/06/21 04:50:51;;;;;;;3.27;2.37;;;20.30;32.30;;;;;;4985148;28;20201;-72
2023/06/21 04:53:28;;;;;;;2.37;1.53;;;21.00;31.20;;;;;;4985391;28;20173;-71
2023/06/21 04:55:57;;;;;;;2.63;1.17;;;21.20;30.60;;;;;;4986662;28;20244;-72
2023/06/21 04:58:28;;;;;;;2.67;0.97;;;21.30;31.00;;;;;;4987788;28;20248;-73
2023/06/21 05:00:55;;;;;;;1.53;0.80;;;21.30;30.40;;;;;;4988143;28;20189;-75
2023/06/21 05:03:22;;;;;;;1.40;0.80;;;21.80;30.10;;;;;;4973605;28;20280;-70
2023/06/21 05:05:50;;;;;;;5.83;1.20;;;21.60;30.50;;;;;;4987715;28;20568;-72
2023/06/21 05:08:17;;;;;;;5.80;1.10;;;21.10;31.60;;;;;;4983389;28;20186;-74
2023/06/21 05:10:44;;;;;;;4.40;0.80;;;21.10;31.80;;;;;;4986720;28;20206;-72
2023/06/21 05:13:11;;;;;;;4.30;0.90;;;21.30;31.00;;;;;;4983658;28;20190;-74
2023/06/21 05:15:39;;;;;;;6.33;1.20;;;21.70;31.40;;;;;;4983798;28;20234;-71
2023/06/21 05:18:06;;;;;;;1.80;0.90;;;22.30;30.70;;;;;;4991614;28;20189;-76
2023/06/21 05:20:33;;;;;;;1.60;1.00;;;22.30;30.10;;;;;;4991662;28;20290;-74
2023/06/21 05:23:01;;;;;;;6.23;1.00;;;21.70;31.30;;;;;;4987631;28;20224;-71
2023/06/21 05:25:28;;;;;;;2.13;0.90;;;21.50;31.30;;;;;;4988910;28;20197;-73
2023/06/21 05:27:55;;;;;;;3.10;0.90;;;21.70;30.80;;;;;;4987854;28;20612;-73
2023/06/21 05:30:23;;;;;;;1.10;0.80;;;21.30;30.50;;;;;;4990970;28;20190;-72
2023/06/21 05:32:50;;;;;;;4.80;1.10;;;21.30;30.50;;;;;;4988982;28;20191;-71
2023/06/21 05:35:17;;;;;;;3.57;1.23;;;21.20;31.40;;;;;;4989761;28;20256;-73
2023/06/21 05:37:45;;;;;;;6.27;1.00;;;21.10;30.70;;;;;;4989544;28;20605;-71
2023/06/21 05:40:12;;;;;;;3.30;1.10;;;21.80;30.10;;;;;;4989288;28;20237;-72
2023/06/21 05:42:40;;;;;;;2.30;1.20;;;21.40;30.50;;;;;;4989934;28;20536;-74
2023/06/21 05:45:09;;;;;;;2.57;1.30;;;21.30;30.70;;;;;;4978620;28;20629;-71
2023/06/21 05:47:37;;;;;;;2.73;1.27;;;21.40;30.50;;;;;;4990640;28;20193;-72
2023/06/21 05:50:04;;;;;;;4.20;1.00;;;21.60;30.30;;;;;;4991351;28;20518;-72
2023/06/21 05:52:32;;;;;;;3.73;1.17;;;21.70;29.70;;;;;;4989143;28;20190;-71
2023/06/21 05:54:59;;;;;;;3.80;1.23;;;21.40;31.00;;;;;;4990491;28;20217;-71
2023/06/21 05:57:26;;;;;;;4.33;1.30;;;21.70;30.90;;;;;;4988493;28;20182;-72
2023/06/21 05:59:55;;;;;;;5.80;1.10;;;21.40;31.30;;;;;;4993773;28;20360;-72
2023/06/21 06:02:23;;;;;;;3.47;1.10;;;21.80;30.40;;;;;;4989450;28;20190;-74
2023/06/21 06:04:50;;;;;;;3.50;1.50;;;21.70;30.90;;;;;;4985119;28;20213;-71
2023/06/21 06:07:19;;;;;;;3.30;1.30;;;21.60;30.70;;;;;;4985829;28;20206;-75
2023/06/21 06:09:46;;;;;;;3.63;1.17;;;20.80;32.80;;;;;;4989716;28;20278;-75
2023/06/21 06:12:14;;;;;;;3.17;0.97;;;19.60;33.40;;;;;;4989388;28;20220;-75
2023/06/21 06:14:41;;;;;;;4.67;0.93;;;18.70;35.10;;;;;;4993780;28;20213;-75
2023/06/21 06:17:08;;;;;;;3.40;1.10;;;18.00;36.60;;;;;;4988901;28;20174;-76
2023/06/21 06:19:35;;;;;;;2.50;0.90;;;17.50;37.90;;;;;;4989611;28;20233;-76
2023/06/21 06:22:03;;;;;;;3.00;1.43;;;17.10;39.70;;;;;;4988641;28;20274;-76
2023/06/21 06:24:30;;;;;;;4.70;1.20;;;17.10;40.10;;;;;;4992363;28;20174;-77
2023/06/21 06:26:59;;;;;;;5.67;1.10;;;17.00;39.70;;;;;;4989100;28;20707;-75
2023/06/21 06:29:26;;;;;;;3.37;1.20;;;16.80;40.50;;;;;;4990691;28;20197;-72
2023/06/21 06:31:53;;;;;;;8.10;2.40;;;16.50;40.90;;;;;;4994263;28;20219;-76
2023/06/21 06:34:21;;;;;;;4.23;1.20;;;16.20;42.30;;;;;;4995272;28;20224;-70
2023/06/21 06:36:48;;;;;;;3.10;1.03;;;16.10;43.20;;;;;;4990359;28;20197;-71
2023/06/21 06:39:16;;;;;;;2.27;1.20;;;15.90;45.00;;;;;;4983840;28;20770;-71
2023/06/21 06:41:43;;;;;;;3.80;1.53;;;15.80;45.90;;;;;;4987540;28;20182;-69
2023/06/21 06:44:10;;;;;;;7.93;1.40;;;15.60;46.80;;;;;;4988194;28;20181;-71
2023/06/21 06:46:38;;;;;;;4.57;1.53;;;15.30;48.10;;;;;;4993174;28;20198;-71
2023/06/21 06:49:05;;;;;;;3.07;1.53;;;15.20;50.60;;;;;;4991929;28;20193;-71
2023/06/21 06:51:32;;;;;;;6.47;1.77;;;15.00;51.70;;;;;;4987087;28;20178;-71
2023/06/21 06:53:59;;;;;;;4.07;1.60;;;14.90;52.40;;;;;;4990000;28;20673;-71
2023/06/21 06:56:27;;;;;;;4.17;1.73;;;14.80;53.40;;;;;;4988541;28;20193;-72
2023/06/21 06:58:54;;;;;;;8.77;1.73;;;14.60;54.20;;;;;;4991774;28;20190;-70
2023/06/21 07:01:22;;;;;;;3.53;1.67;;;14.50;55.40;;;;;;4986131;28;20267;-74
2023/06/21 07:03:49;;;;;;;6.13;1.93;;;14.40;55.70;;;;;;4989361;28;20209;-74
2023/06/21 07:06:17;;;;;;;6.13;2.33;;;14.40;56.50;;;;;;4987499;28;20289;-74
2023/06/21 07:08:44;;;;;;;4.33;2.33;;;14.20;56.60;;;;;;4985992;28;20184;-76
2023/06/21 07:11:12;;;;;;;6.77;2.20;;;14.10;57.40;;;;;;4992493;28;20517;-75
2023/06/21 07:13:40;;;;;;;2.90;1.83;;;14.00;57.90;;;;;;4987761;28;20578;-76
2023/06/21 07:16:07;;;;;;;6.37;1.63;;;13.90;58.70;;;;;;4982457;28;20186;-75
2023/06/21 07:18:34;;;;;;;4.23;1.80;;;13.80;59.50;;;;;;4982508;28;20640;-74
2023/06/21 07:21:02;;;;;;;9.80;1.93;;;13.70;60.10;;;;;;4990188;28;20186;-69
2023/06/21 07:23:30;;;;;;;6.30;2.20;;;13.60;60.30;;;;;;4990530;28;20518;-72
2023/06/21 07:25:57;;;;;;;5.57;2.00;;;13.60;61.00;;;;;;4990316;28;20189;-72
2023/06/21 07:28:25;;;;;;;3.43;1.93;;;13.60;61.20;;;;;;4989313;28;20209;-71
2023/06/21 07:30:52;;;;;;;7.17;2.10;;;13.50;61.50;;;;;;4982775;28;20526;-76
2023/06/21 07:33:20;;;;;;;6.47;2.30;;;13.50;62.00;;;;;;4983279;28;20174;-72
2023/06/21 07:35:47;;;;;;;6.93;2.13;;;13.50;62.30;;;;;;4987189;28;20222;-74
2023/06/21 07:38:15;;;;;;;8.97;1.93;;;13.50;62.20;;;;;;4988197;28;20656;-73
2023/06/21 07:40:42;;;;;;;4.67;1.80;;;13.50;62.80;;;;;;4990586;28;20261;-74
2023/06/21 07:43:09;;;;;;;3.83;1.93;;;13.50;62.40;;;;;;4981656;28;20187;-74
2023/06/21 07:45:37;;;;;;;3.90;1.70;;;13.50;62.40;;;;;;4989379;28;20277;-74
2023/06/21 07:48:04;;;;;;;3.73;2.13;;;13.50;62.90;;;;;;4981508;28;20525;-71
2023/06/21 07:50:32;;;;;;;6.73;2.50;;;13.60;63.10;;;;;;4985525;28;20258;-72
2023/06/21 07:52:59;;;;;;;19.80;2.60;;;13.60;62.50;;;;;;4986447;28;20194;-72
2023/06/21 07:55:26;;;;;;;10.13;3.20;;;13.60;62.90;;;;;;4985787;28;20267;-71
2023/06/21 07:57:54;;;;;;;5.37;2.57;;;13.60;62.70;;;;;;4983745;28;20731;-71
2023/06/21 08:00:21;;;;;;;16.80;2.70;;;13.60;63.10;;;;;;4982043;28;20281;-73
2023/06/21 08:02:52;;;;;;;6.67;2.57;;;13.50;63.60;;;;;;4985464;28;20185;-73
2023/06/21 08:05:22;;;;;;;12.13;2.30;;;13.50;63.90;;;;;;4987132;28;20269;-71
2023/06/21 08:07:49;;;;;;;8.90;2.40;;;13.50;63.50;;;;;;4990646;28;20221;-71
2023/06/21 08:10:17;;;;;;;7.17;1.97;;;13.40;64.00;;;;;;4986922;28;20656;-73
2023/06/21 08:12:44;;;;;;;9.07;2.17;;;13.40;63.90;;;;;;4986112;28;20186;-75
2023/06/21 08:15:12;;;;;;;4.77;1.93;;;13.30;63.60;;;;;;4986151;28;20257;-74
2023/06/21 08:17:39;;;;;;;10.60;2.27;;;13.30;63.90;;;;;;4986923;28;20657;-71
2023/06/21 08:20:07;;;;;;;5.27;2.07;;;13.30;64.00;;;;;;4989607;28;20225;-72
2023/06/21 08:22:34;;;;;;;5.93;2.20;;;13.30;64.00;;;;;;4987320;28;20190;-72
2023/06/21 08:25:02;;;;;;;5.20;2.47;;;13.30;64.20;;;;;;4972313;28;20244;-73
2023/06/21 08:27:29;;;;;;;9.60;4.07;;;13.30;64.30;;;;;;4986207;28;20183;-74
2023/06/21 08:29:56;;;;;;;6.60;4.03;;;13.30;64.60;;;;;;4982785;28;20193;-73
2023/06/21 08:32:24;;;;;;;11.43;4.07;;;13.30;64.50;;;;;;4986333;28;20218;-74
2023/06/21 08:34:54;;;;;;;9.80;3.63;;;13.30;64.90;;;;;;4988670;28;20257;-73
2023/06/21 08:37:25;;;;;;;11.17;3.67;;;13.30;65.20;;;;;;4984869;28;20174;-73
2023/06/21 08:39:53;;;;;;;9.30;3.83;;;13.20;65.20;;;;;;4983636;28;20291;-72
2023/06/21 08:42:23;;;;;;;9.60;3.80;;;13.20;65.90;;;;;;4979105;28;20252;-74
2023/06/21 08:44:52;;;;;;;7.30;3.83;;;13.10;65.70;;;;;;4986106;28;20340;-73
2023/06/21 08:47:28;;;;;;;9.13;4.00;;;13.00;66.30;;;;;;4983559;28;20194;-73
2023/06/21 08:49:59;;;;;;;11.63;4.63;;;12.90;66.50;;;;;;4989508;28;20663;-73
2023/06/21 08:52:29;;;;;;;11.63;5.00;;;12.90;66.80;;;;;;4983704;28;20279;-70
2023/06/21 08:55:07;;;;;;;8.17;4.73;;;12.80;66.60;;;;;;4978894;28;20214;-73
2023/06/21 08:57:46;;;;;;;9.43;4.73;;;12.80;67.10;;;;;;4991161;28;20189;-71
2023/06/21 09:00:15;;;;;;;12.30;5.27;;;12.80;67.00;;;;;;4998489;28;20665;-72
2023/06/21 09:03:07;;;;;;;11.93;5.27;;;12.80;67.40;;;;;;4995238;28;20208;-74
2023/06/21 09:06:00;;;;;;;10.47;5.10;;;12.90;67.90;;;;;;4970263;28;20693;-73
2023/06/21 09:08:27;;;;;;;10.83;5.17;;;13.00;67.80;;;;;;4993240;28;20786;-73
2023/06/21 09:10:56;;;;;;;15.20;5.87;;;12.90;67.50;;;;;;4990907;28;20216;-73
2023/06/21 09:13:27;;;;;;;13.17;5.43;;;12.90;67.30;;;;;;4985048;28;20683;-74
2023/06/21 09:15:58;;;;;;;12.53;5.47;;;12.90;67.60;;;;;;4989437;28;20329;-73
2023/06/21 09:18:35;;;;;;;14.93;5.67;;;12.80;67.90;;;;;;4986130;28;20222;-71
2023/06/21 09:21:03;;;;;;;11.27;5.80;;;12.80;68.20;;;;;;4992771;28;20609;-74
2023/06/21 09:23:30;;;;;;;18.27;6.10;;;12.80;68.90;;;;;;4987552;28;20210;-73
2023/06/21 09:25:58;;;;;;;14.87;6.37;;;12.80;68.90;;;;;;4990271;28;20309;-72
2023/06/21 09:28:26;;;;;;;13.77;6.37;;;12.80;68.60;;;;;;4991976;28;20701;-73
2023/06/21 09:30:53;;;;;;;14.37;6.40;;;12.80;69.60;;;;;;4989459;28;20656;-73
2023/06/21 09:33:21;;;;;;;19.73;7.53;;;12.70;69.40;;;;;;4993486;28;20178;-73
2023/06/21 09:35:48;;;;;;;16.00;7.30;;;12.70;69.00;;;;;;4991393;28;20304;-73
2023/06/21 09:38:28;;;;;;;13.77;8.47;;;12.70;69.60;;;;;;4993397;28;20170;-72
2023/06/21 09:40:55;;;;;;;16.40;9.23;;;12.60;69.50;;;;;;4990325;28;20190;-73
2023/06/21 09:43:23;;;;;;;19.43;9.83;;;12.60;69.50;;;;;;4994053;28;20166;-74
2023/06/21 09:46:09;;;;;;;16.23;8.87;;;12.50;69.30;;;;;;4990247;28;20194;-73
2023/06/21 09:48:38;;;;;;;16.57;8.53;;;12.50;70.00;;;;;;4988208;28;20201;-73
2023/06/21 09:51:09;;;;;;;18.47;10.10;;;12.50;70.00;;;;;;4989660;28;20213;-71
2023/06/21 09:53:37;;;;;;;16.07;8.20;;;12.40;70.20;;;;;;4988415;28;20541;-71
2023/06/21 09:56:04;;;;;;;15.10;7.40;;;12.30;70.60;;;;;;4991281;28;20222;-73
2023/06/21 09:58:35;;;;;;;13.33;8.00;;;12.30;70.40;;;;;;4968841;28;20261;-71
2023/06/21 10:01:13;;;;;;;19.73;10.13;;;12.30;71.20;;;;;;4987366;28;20186;-73
2023/06/21 10:03:43;;;;;;;14.53;9.10;;;12.30;71.00;;;;;;4988184;28;20185;-75
2023/06/21 10:06:16;;;;;;;17.80;10.37;;;12.30;71.20;;;;;;4986201;28;20193;-76
2023/06/21 10:08:44;;;;;;;21.70;11.53;;;12.30;71.40;;;;;;4992445;28;20719;-72
2023/06/21 10:11:15;;;;;;;23.00;11.40;;;12.20;71.30;;;;;;4988321;28;20692;-73
2023/06/21 10:13:43;;;;;;;15.77;8.73;;;12.20;71.40;;;;;;4990735;28;20196;-73
2023/06/21 10:16:11;;;;;;;17.63;8.90;;;12.30;71.50;;;;;;4987924;28;20199;-73
2023/06/21 10:18:38;;;;;;;16.80;8.43;;;12.30;70.80;;;;;;4993779;28;20312;-71
2023/06/21 10:21:08;;;;;;;14.80;7.80;;;12.20;71.00;;;;;;4991315;28;20193;-70
2023/06/21 10:23:38;;;;;;;16.77;7.50;;;12.30;71.00;;;;;;4993719;28;20652;-71
2023/06/21 10:26:15;;;;;;;18.57;7.17;;;12.30;70.50;;;;;;4989794;28;20182;-71
2023/06/21 10:28:46;;;;;;;14.33;7.37;;;12.20;70.50;;;;;;4986886;28;20192;-72
2023/06/21 10:31:13;;;;;;;12.13;6.50;;;12.20;70.20;;;;;;4994030;28;20196;-73
2023/06/21 10:33:42;;;;;;;16.03;5.67;;;12.00;69.40;;;;;;4994921;28;20285;-72
2023/06/21 10:36:13;;;;;;;9.53;5.87;;;12.00;69.60;;;;;;4992669;28;20205;-71
2023/06/21 10:38:45;;;;;;;11.47;5.87;;;12.00;69.40;;;;;;4992991;28;21229;-74
2023/06/21 10:41:17;;;;;;;13.90;6.30;;;11.90;69.20;;;;;;4990303;28;21032;-74
2023/06/21 10:43:45;;;;;;;11.73;5.40;;;11.90;69.30;;;;;;4993524;28;20182;-74
2023/06/21 10:46:12;;;;;;;13.17;5.87;;;11.80;68.50;;;;;;4987957;28;20186;-74
2023/06/21 10:48:40;;;;;;;12.83;5.70;;;11.70;69.40;;;;;;4993310;28;20178;-74
2023/06/21 10:51:10;;;;;;;12.03;5.73;;;11.70;69.00;;;;;;4995745;28;20240;-73
2023/06/21 10:53:39;;;;;;;11.40;5.90;;;11.60;69.00;;;;;;4989241;28;20274;-74
2023/06/21 10:56:07;;;;;;;11.13;5.70;;;11.60;69.40;;;;;;4974582;28;20243;-74
2023/06/21 10:58:35;;;;;;;12.30;5.83;;;11.50;69.20;;;;;;4992068;28;20761;-74
2023/06/21 11:01:02;;;;;;;11.33;6.20;;;11.50;69.00;;;;;;4995144;28;20189;-73
2023/06/21 11:03:29;;;;;;;16.27;5.87;;;11.50;69.20;;;;;;4982060;28;20186;-74
2023/06/21 11:06:26;;;;;;;10.13;5.90;;;11.40;69.20;;;;;;4982925;28;20315;-73
2023/06/21 11:08:54;;;;;;;13.43;6.63;;;11.40;69.20;;;;;;4991347;28;20574;-73
2023/06/21 11:11:40;;;;;;;11.03;6.27;;;11.30;68.90;;;;;;4988073;28;20201;-74
2023/06/21 11:14:08;;;;;;;13.93;6.60;;;11.30;68.70;;;;;;4984559;28;20233;-73
2023/06/21 11:16:39;;;;;;;19.63;6.60;;;11.20;68.70;;;;;;4986889;28;20200;-73
2023/06/21 11:19:11;;;;;;;15.23;6.90;;;11.20;68.70;;;;;;4987129;28;20226;-74
2023/06/21 11:21:45;;;;;;;14.87;6.53;;;11.20;68.20;;;;;;4985124;28;20192;-73
2023/06/21 11:24:17;;;;;;;10.53;5.80;;;11.10;67.20;;;;;;4984522;28;20636;-73
2023/06/21 11:27:01;;;;;;;11.60;5.87;;;11.00;66.20;;;;;;4986725;28;20197;-73
2023/06/21 11:30:09;;;;;;;14.20;6.53;;;11.00;66.50;;;;;;4987546;28;20241;-73
2023/06/21 11:32:38;;;;;;;15.40;5.87;;;11.10;66.60;;;;;;4986272;28;20658;-72
2023/06/21 11:35:09;;;;;;;12.77;5.70;;;11.20;66.30;;;;;;4990450;28;20232;-72
2023/06/21 11:37:47;;;;;;;12.30;5.30;;;11.20;66.10;;;;;;4986623;28;20273;-73
2023/06/21 11:40:18;;;;;;;10.07;4.83;;;11.20;67.00;;;;;;4981026;28;20216;-73
2023/06/21 11:42:47;;;;;;;12.07;5.07;;;11.20;66.90;;;;;;4989822;28;20197;-74
2023/06/21 11:45:33;;;;;;;11.40;5.10;;;11.20;66.40;;;;;;4991522;28;20721;-73
2023/06/21 11:48:08;;;;;;;9.03;4.97;;;11.20;66.80;;;;;;4985636;28;20287;-74
2023/06/21 11:50:46;;;;;;;10.00;5.60;;;11.30;66.00;;;;;;4985811;28;20233;-74
2023/06/21 11:53:13;;;;;;;7.80;4.90;;;11.30;65.50;;;;;;4986600;28;20195;-73
2023/06/21 11:55:41;;;;;;;8.60;5.33;;;11.20;65.20;;;;;;4987682;28;20700;-73
2023/06/21 11:58:09;;;;;;;9.37;5.03;;;11.30;65.90;;;;;;4987984;28;20240;-75
2023/06/21 12:00:37;;;;;;;9.20;5.20;;;11.30;65.00;;;;;;4984493;28;21511;-72
2023/06/21 12:03:06;;;;;;;11.53;5.37;;;11.30;65.80;;;;;;4972916;28;20213;-74
2023/06/21 12:05:52;;;;;;;11.73;4.97;;;11.20;65.60;;;;;;4983405;28;20198;-72
2023/06/21 12:08:22;;;;;;;9.07;4.77;;;11.20;65.10;;;;;;4988968;28;20185;-73
2023/06/21 12:10:49;;;;;;;11.77;5.57;;;11.20;65.20;;;;;;4990059;28;20190;-73
2023/06/21 12:13:19;;;;;;;11.87;6.33;;;11.20;64.60;;;;;;4988258;28;20194;-74
2023/06/21 12:15:57;;;;;;;9.93;5.07;;;11.20;65.60;;;;;;4984225;28;20231;-74
2023/06/21 12:18:26;;;;;;;9.77;4.87;;;11.10;64.40;;;;;;4987432;28;20240;-72
2023/06/21 12:20:59;;;;;;;15.40;5.70;;;11.10;64.70;;;;;;4989114;28;20191;-73
2023/06/21 12:23:28;;;;;;;11.10;4.77;;;11.10;64.90;;;;;;4989413;28;20244;-75
2023/06/21 12:25:59;;;;;;;9.60;5.67;;;11.10;65.30;;;;;;4987920;28;20183;-74
2023/06/21 12:28:27;;;;;;;9.60;5.33;;;11.20;64.90;;;;;;4990809;28;20209;-71
2023/06/21 12:31:01;;;;;;;16.07;5.47;;;11.20;64.60;;;;;;4990835;28;20182;-74
2023/06/21 12:33:38;;;;;;;13.27;6.13;;;11.20;64.40;;;;;;4981275;28;20191;-72
2023/06/21 12:36:26;;;;;;;8.23;5.00;;;11.20;64.40;;;;;;4989384;28;20221;-72
2023/06/21 12:39:01;;;;;;;14.37;6.17;;;11.20;65.70;;;;;;4985804;28;20181;-74
2023/06/21 12:41:33;;;;;;;11.63;5.40;;;11.20;65.70;;;;;;4987943;28;20188;-75
2023/06/21 12:44:02;;;;;;;16.20;6.30;;;11.20;64.30;;;;;;4984874;28;20217;-74
2023/06/21 12:46:38;;;;;;;14.53;6.57;;;11.10;64.50;;;;;;4985854;28;20174;-74
2023/06/21 12:49:06;;;;;;;17.17;6.57;;;11.20;64.30;;;;;;4988674;28;20185;-74
2023/06/21 12:51:36;;;;;;;14.97;6.30;;;11.10;64.20;;;;;;4987083;28;20186;-73
2023/06/21 12:54:06;;;;;;;13.83;6.57;;;11.10;63.90;;;;;;4985001;28;20178;-75
2023/06/21 12:56:39;;;;;;;19.27;6.97;;;11.00;63.90;;;;;;4982854;28;20656;-74